KFHRKPAE

Guest
Details From KFHR - FRIDAY HARBOR
To KPAE - SNOHOMISH CO
Flight Number -
Tags decoded
Created
Modified
Stats Distance 48 nm / 89 km
Max Altitude 0 ft / 0 m
Waypoints 4
Social Downloads 3
Likes 0
Share VATSIM

Download

Looking for another format? Having issues loading an existing format? Contact us
Advertisement - Login to hide

Notes

Requested: KFHR CVV PAE KPAE

Route

KFHR CVV PAE KPAE

ID Type Via Altitude Latitude Longitude Leg Dist Tot Dist Heading (true) Name
O KFHR APT - 0 ft / 0 m 48.52197˚ -123.02437˚ - 0 nm - FRIDAY HARBOR
CVV VOR - 0 ft / 0 m 48.24469˚ -122.72442˚ 20 nm 20 nm 144° / 144° PENN COVE VOR-DME
PAE VOR - 0 ft / 0 m 47.91983˚ -122.27783˚ 26 nm 46 nm 137° / 138° PAINE VOR-DME
O KPAE APT - 0 ft / 0 m 47.90598˚ -122.27914˚ 0 nm 47 nm 184° / 184° SNOHOMISH CO

Altitude Profile

Advertisement - Login to hide

KFHR

Details ICAO KFHR (FRD)
Name FRIDAY HARBOR
Region United States
Timezone America/Los_Angeles (UTC-8.0)
Stats Elevation 113 ft / 34 m (AMSL)
Location 48.521966° -123.024368°
Runways 1
Magnetic Variation 16.073° E

METAR

KFHR 111853Z AUTO 06003KT 10SM CLR 06/03 A3034 RMK AO2 SLP275 T00610028 $

Decode

TAF

Not found

Departure Runways

ID Width Length Bearing (true) Bearing (mag) Surface Threshold Offset Overrun Length
16 75 ft / 23 m 3,402 ft / 1,037 m 177.06° 160.99° Asphalt 0 ft / 0 m 0 ft / 0 m
34 75 ft / 23 m 3,402 ft / 1,037 m 357.06° 340.99° Asphalt 0 ft / 0 m 0 ft / 0 m

KPAE

Details ICAO KPAE (PAE)
Name SNOHOMISH CO
Region United States
Timezone America/Los_Angeles (UTC-8.0)
Stats Elevation 606 ft / 185 m (AMSL)
Location 47.905980° -122.279142°
Runways 3
Magnetic Variation 15.789° E

METAR

KPAE 111853Z 13006KT 10SM CLR 07/M04 A3034 RMK AO2 SLP277 T00671044

Decode

TAF

TAF KPAE 111720Z 1118/1218 12007KT P6SM VCFG SKC FM112000 15007KT P6SM SKC FM121000 15005KT P6SM BKN080

Decode

Destination Runways

ID Width Length Bearing (true) Bearing (mag) Surface Threshold Offset Overrun Length
11 75 ft / 23 m 4,508 ft / 1,374 m 134.22° 118.43° Asphalt 801 ft / 244 m 0 ft / 0 m
16L 75 ft / 23 m 3,000 ft / 915 m 179.56° 163.77° Asphalt 0 ft / 0 m 0 ft / 0 m
16R 151 ft / 46 m 9,404 ft / 2,867 m 179.13° 163.34° Asphalt 400 ft / 122 m 220 ft / 67 m
29 75 ft / 23 m 4,508 ft / 1,374 m 314.23° 298.44° Asphalt 0 ft / 0 m 0 ft / 0 m
34L 151 ft / 46 m 9,404 ft / 2,867 m 359.13° 343.34° Asphalt 0 ft / 0 m 404 ft / 123 m
34R 75 ft / 23 m 3,000 ft / 915 m 359.56° 343.77° Asphalt 0 ft / 0 m 0 ft / 0 m

Approach Navaids

Runway Type Ident Frequency Range Bearing (true) Bearing (mag) Slope Elevation
16R Localiser IPAE 109.30 MHz 18 nm / 33 km 179.13° 163.34° - 565 ft / 172 m (AMSL)
16R Glidescope IPAE 109.30 MHz 10 nm / 19 km 179.13° 163.34° 2.80° 562 ft / 171 m (AMSL)

Popular Alternatives